Time;durP1;ratioP1;P1;durP2;ratioP2;P2;SDS_P1;SDS_P2;PMS_P1;PMS_P2;Temp;Humidity;BMP_temperature;BMP_pressure;BME280_temperature;BME280_humidity;BME280_pressure;Samples;Min_cycle;Max_cycle;Signal;HPM_P1;HPM_P2
2023/05/02 00:02:18;;;;;;;;;;;;;;;;;;5117370;28;20049;-68
2023/05/02 00:04:44;;;;;;;;;;;;;;;;;;5117828;28;20450;-68
2023/05/02 00:07:10;;;;;;;;;;;;;;;;;;5117301;28;19970;-68
2023/05/02 00:09:36;;;;;;;;;;;;;;;;;;5118147;28;20294;-68
2023/05/02 00:12:02;;;;;;;;;;;;;;;;;;5117730;28;20367;-68
2023/05/02 00:14:28;;;;;;;;;;;;;;;;;;5117079;28;19959;-68
2023/05/02 00:16:55;;;;;;;;;;;;;;;;;;5117078;28;19968;-68
2023/05/02 00:19:20;;;;;;;;;;;;;;;;;;5117288;28;19963;-68
2023/05/02 00:21:47;;;;;;;;;;;;;;;;;;5117466;28;20485;-68
2023/05/02 00:24:13;;;;;;;;;;;;;;;;;;5117181;28;20069;-68
2023/05/02 00:26:39;;;;;;;;;;;;;;;;;;5117444;28;20005;-68
2023/05/02 00:29:05;;;;;;;;;;;;;;;;;;5116811;28;20312;-68
2023/05/02 00:31:31;;;;;;;;;;;;;;;;;;5116432;28;19991;-68
2023/05/02 00:33:57;;;;;;;;;;;;;;;;;;5116993;28;19981;-68
2023/05/02 00:36:23;;;;;;;;;;;;;;;;;;5116969;28;19962;-68
2023/05/02 00:38:49;;;;;;;;;;;;;;;;;;5117297;28;19958;-68
2023/05/02 00:41:14;;;;;;;;;;;;;;;;;;5117152;28;19994;-68
2023/05/02 00:43:40;;;;;;;;;;;;;;;;;;5116532;28;20000;-68
2023/05/02 00:46:07;;;;;;;;;;;;;;;;;;5116583;28;20325;-68
2023/05/02 00:48:33;;;;;;;;;;;;;;;;;;5116480;28;19959;-68
2023/05/02 00:50:59;;;;;;;;;;;;;;;;;;5116434;28;20019;-68
2023/05/02 00:53:25;;;;;;;;;;;;;;;;;;5116405;28;20053;-68
2023/05/02 00:55:53;;;;;;;;;;;;;;;;;;5116901;28;19994;-68
2023/05/02 00:58:19;;;;;;;;;;;;;;;;;;5116641;28;20046;-69
2023/05/02 01:00:44;;;;;;;;;;;;;;;;;;5098008;28;20443;-68
2023/05/02 01:03:10;;;;;;;;;;;;;;;;;;5116163;28;19981;-68
2023/05/02 01:05:36;;;;;;;;;;;;;;;;;;5116737;28;20393;-68
2023/05/02 01:08:03;;;;;;;;;;;;;;;;;;5116374;28;19959;-68
2023/05/02 01:10:29;;;;;;;;;;;;;;;;;;5116426;28;19955;-68
2023/05/02 01:12:55;;;;;;;;;;;;;;;;;;5116016;28;19955;-68
2023/05/02 01:15:21;;;;;;;;;;;;;;;;;;5115946;28;20513;-68
2023/05/02 01:17:47;;;;;;;;;;;;;;;;;;5115928;28;19955;-68
2023/05/02 01:20:13;;;;;;;;;;;;;;;;;;5115799;28;20325;-68
2023/05/02 01:22:39;;;;;;;;;;;;;;;;;;5116025;28;19978;-68
2023/05/02 01:25:05;;;;;;;;;;;;;;;;;;5115660;28;20005;-68
2023/05/02 01:27:31;;;;;;;;;;;;;;;;;;5115720;28;19954;-68
2023/05/02 01:29:57;;;;;;;;;;;;;;;;;;5115933;28;19986;-67
2023/05/02 01:32:23;;;;;;;;;;;;;;;;;;5115895;28;19955;-68
2023/05/02 01:34:49;;;;;;;;;;;;;;;;;;5115811;28;20332;-68
2023/05/02 01:37:16;;;;;;;;;;;;;;;;;;5115841;28;19998;-68
2023/05/02 01:39:42;;;;;;;;;;;;;;;;;;5115816;28;19959;-67
2023/05/02 01:42:08;;;;;;;;;;;;;;;;;;5115589;28;20435;-68
2023/05/02 01:44:35;;;;;;;;;;;;;;;;;;5115223;28;20073;-68
2023/05/02 01:47:02;;;;;;;;;;;;;;;;;;5115573;28;19959;-67
2023/05/02 01:49:28;;;;;;;;;;;;;;;;;;5115530;28;19955;-67
2023/05/02 01:51:54;;;;;;;;;;;;;;;;;;5115191;28;19955;-69
2023/05/02 01:54:19;;;;;;;;;;;;;;;;;;5115147;28;20038;-68
2023/05/02 01:56:46;;;;;;;;;;;;;;;;;;5115380;28;19954;-68
2023/05/02 01:59:12;;;;;;;;;;;;;;;;;;5115035;28;19959;-68
2023/05/02 02:01:37;;;;;;;;;;;;;;;;;;5115052;28;20008;-68
2023/05/02 02:04:03;;;;;;;;;;;;;;;;;;5115547;28;20324;-68
2023/05/02 02:06:30;;;;;;;;;;;;;;;;;;5115236;28;19955;-67
2023/05/02 02:08:56;;;;;;;;;;;;;;;;;;5114895;28;19977;-68
2023/05/02 02:11:23;;;;;;;;;;;;;;;;;;5115148;28;20413;-68
2023/05/02 02:13:49;;;;;;;;;;;;;;;;;;5115064;28;20468;-69
2023/05/02 02:16:15;;;;;;;;;;;;;;;;;;5114782;28;19955;-68
2023/05/02 02:18:41;;;;;;;;;;;;;;;;;;5114749;28;20415;-68
2023/05/02 02:21:07;;;;;;;;;;;;;;;;;;5114694;28;19955;-68
2023/05/02 02:23:33;;;;;;;;;;;;;;;;;;5114495;28;20440;-68
2023/05/02 02:25:59;;;;;;;;;;;;;;;;;;5114911;28;19955;-68
2023/05/02 02:28:25;;;;;;;;;;;;;;;;;;5114881;28;20418;-68
2023/05/02 02:30:51;;;;;;;;;;;;;;;;;;5114202;28;19997;-68
2023/05/02 02:33:16;;;;;;;;;;;;;;;;;;5114541;28;19963;-68
2023/05/02 02:35:42;;;;;;;;;;;;;;;;;;5096258;28;19966;-68
2023/05/02 02:38:08;;;;;;;;;;;;;;;;;;5115001;28;19955;-68
2023/05/02 02:40:34;;;;;;;;;;;;;;;;;;5096173;28;19958;-69
2023/05/02 02:43:00;;;;;;;;;;;;;;;;;;5115394;28;19954;-68
2023/05/02 02:45:26;;;;;;;;;;;;;;;;;;5115180;28;20419;-68
2023/05/02 02:47:53;;;;;;;;;;;;;;;;;;5114345;28;19959;-68
2023/05/02 02:50:20;;;;;;;;;;;;;;;;;;5114926;28;20054;-68
2023/05/02 02:52:45;;;;;;;;;;;;;;;;;;5114412;28;19955;-68
2023/05/02 02:55:11;;;;;;;;;;;;;;;;;;5113971;28;19961;-68
2023/05/02 02:57:37;;;;;;;;;;;;;;;;;;5114217;28;20370;-68
2023/05/02 03:00:04;;;;;;;;;;;;;;;;;;5114083;28;19962;-68
2023/05/02 03:02:30;;;;;;;;;;;;;;;;;;5114102;28;19994;-68
2023/05/02 03:04:56;;;;;;;;;;;;;;;;;;5114020;28;19985;-68
2023/05/02 03:07:22;;;;;;;;;;;;;;;;;;5114292;28;19963;-68
2023/05/02 03:09:48;;;;;;;;;;;;;;;;;;5114894;28;20402;-68
2023/05/02 03:12:14;;;;;;;;;;;;;;;;;;5114028;28;19955;-68
2023/05/02 03:14:40;;;;;;;;;;;;;;;;;;5114242;28;19954;-68
2023/05/02 03:17:09;;;;;;;;;;;;;;;;;;5113941;28;20020;-68
2023/05/02 03:19:36;;;;;;;;;;;;;;;;;;5114519;28;20020;-68
2023/05/02 03:22:02;;;;;;;;;;;;;;;;;;5113852;28;20053;-67
2023/05/02 03:24:28;;;;;;;;;;;;;;;;;;5113836;28;20432;-68
2023/05/02 03:26:53;;;;;;;;;;;;;;;;;;5113835;28;20112;-68
2023/05/02 03:29:19;;;;;;;;;;;;;;;;;;5114139;28;19962;-68
2023/05/02 03:31:45;;;;;;;;;;;;;;;;;;5113417;28;19990;-68
2023/05/02 03:34:11;;;;;;;;;;;;;;;;;;5114366;28;19954;-68
2023/05/02 03:36:37;;;;;;;;;;;;;;;;;;5113825;28;19955;-68
2023/05/02 03:39:03;;;;;;;;;;;;;;;;;;5114094;28;20037;-68
2023/05/02 03:41:29;;;;;;;;;;;;;;;;;;5113736;28;20362;-68
2023/05/02 03:43:55;;;;;;;;;;;;;;;;;;5114492;28;19974;-68
2023/05/02 03:46:21;;;;;;;;;;;;;;;;;;5113674;28;20042;-67
2023/05/02 03:48:47;;;;;;;;;;;;;;;;;;5113910;28;19963;-67
2023/05/02 03:51:13;;;;;;;;;;;;;;;;;;5113629;28;20024;-68
2023/05/02 03:53:39;;;;;;;;;;;;;;;;;;5114197;28;19962;-68
2023/05/02 03:56:06;;;;;;;;;;;;;;;;;;5113614;28;19955;-68
2023/05/02 03:58:32;;;;;;;;;;;;;;;;;;5113629;28;19966;-68
2023/05/02 04:00:58;;;;;;;;;;;;;;;;;;5113831;28;19955;-68
2023/05/02 04:03:24;;;;;;;;;;;;;;;;;;5113775;28;19975;-68
2023/05/02 04:05:50;;;;;;;;;;;;;;;;;;5115533;28;19959;-68
2023/05/02 04:08:17;;;;;;;;;;;;;;;;;;5099017;28;19959;-67
2023/05/02 04:10:43;;;;;;;;;;;;;;;;;;5117882;28;19966;-68
2023/05/02 04:13:09;;;;;;;;;;;;;;;;;;5117192;28;19955;-67
2023/05/02 04:15:35;;;;;;;;;;;;;;;;;;5117115;28;20324;-68
2023/05/02 04:18:01;;;;;;;;;;;;;;;;;;5117138;28;19962;-68
2023/05/02 04:20:27;;;;;;;;;;;;;;;;;;5117621;28;20477;-68
2023/05/02 04:22:53;;;;;;;;;;;;;;;;;;5116862;28;19975;-68
2023/05/02 04:25:19;;;;;;;;;;;;;;;;;;5116989;28;20046;-68
2023/05/02 04:27:45;;;;;;;;;;;;;;;;;;5117208;28;20012;-68
2023/05/02 04:30:11;;;;;;;;;;;;;;;;;;5116691;28;20044;-68
2023/05/02 04:32:37;;;;;;;;;;;;;;;;;;5117136;28;19962;-67
2023/05/02 04:35:03;;;;;;;;;;;;;;;;;;5116759;28;19963;-68
2023/05/02 04:37:29;;;;;;;;;;;;;;;;;;5116993;28;20008;-68
2023/05/02 04:39:55;;;;;;;;;;;;;;;;;;5116700;28;19963;-68
2023/05/02 04:42:21;;;;;;;;;;;;;;;;;;5117723;28;20332;-67
2023/05/02 04:44:46;;;;;;;;;;;;;;;;;;5116843;28;19974;-68
2023/05/02 04:47:12;;;;;;;;;;;;;;;;;;5116523;28;20383;-68
2023/05/02 04:49:38;;;;;;;;;;;;;;;;;;5116769;28;20004;-68
2023/05/02 04:52:05;;;;;;;;;;;;;;;;;;5116459;28;19959;-67
2023/05/02 04:54:31;;;;;;;;;;;;;;;;;;5116373;28;19981;-68
2023/05/02 04:56:58;;;;;;;;;;;;;;;;;;5116643;28;19959;-68
2023/05/02 04:59:24;;;;;;;;;;;;;;;;;;5116555;28;20347;-67
2023/05/02 05:01:50;;;;;;;;;;;;;;;;;;5116246;28;19962;-68
2023/05/02 05:04:15;;;;;;;;;;;;;;;;;;5116438;28;19981;-68
2023/05/02 05:06:41;;;;;;;;;;;;;;;;;;5116191;28;20305;-68
2023/05/02 05:09:07;;;;;;;;;;;;;;;;;;5116456;28;20000;-68
2023/05/02 05:11:33;;;;;;;;;;;;;;;;;;5116086;28;19954;-68
2023/05/02 05:13:59;;;;;;;;;;;;;;;;;;5116336;28;19955;-68
2023/05/02 05:16:25;;;;;;;;;;;;;;;;;;5115243;28;20058;-68
2023/05/02 05:18:52;;;;;;;;;;;;;;;;;;5115758;28;20435;-68
2023/05/02 05:21:18;;;;;;;;;;;;;;;;;;5115808;28;19962;-68
2023/05/02 05:23:44;;;;;;;;;;;;;;;;;;5116016;28;19974;-68
2023/05/02 05:26:10;;;;;;;;;;;;;;;;;;5115795;28;19993;-68
2023/05/02 05:28:36;;;;;;;;;;;;;;;;;;5116299;28;19959;-68
2023/05/02 05:31:02;;;;;;;;;;;;;;;;;;5115515;28;20375;-68
2023/05/02 05:33:28;;;;;;;;;;;;;;;;;;5115622;28;20417;-68
2023/05/02 05:35:54;;;;;;;;;;;;;;;;;;5115557;28;19955;-68
2023/05/02 05:38:20;;;;;;;;;;;;;;;;;;5116092;28;20286;-68
2023/05/02 05:40:46;;;;;;;;;;;;;;;;;;5115449;28;19955;-68
2023/05/02 05:43:12;;;;;;;;;;;;;;;;;;5116417;28;20344;-68
2023/05/02 05:45:38;;;;;;;;;;;;;;;;;;5115362;28;19955;-68
2023/05/02 05:48:03;;;;;;;;;;;;;;;;;;5115596;28;19955;-67
2023/05/02 05:50:29;;;;;;;;;;;;;;;;;;5115279;28;20000;-68
2023/05/02 05:52:55;;;;;;;;;;;;;;;;;;5115527;28;19959;-68
2023/05/02 05:55:21;;;;;;;;;;;;;;;;;;5115210;28;20408;-68
2023/05/02 05:57:47;;;;;;;;;;;;;;;;;;5115057;28;19962;-68
2023/05/02 06:00:13;;;;;;;;;;;;;;;;;;5115404;28;20500;-68
2023/05/02 06:02:39;;;;;;;;;;;;;;;;;;5115296;28;19955;-68
2023/05/02 06:05:05;;;;;;;;;;;;;;;;;;5114894;28;20100;-68
2023/05/02 06:07:31;;;;;;;;;;;;;;;;;;5114867;28;20313;-68
2023/05/02 06:09:56;;;;;;;;;;;;;;;;;;5115478;28;19965;-68
2023/05/02 06:12:22;;;;;;;;;;;;;;;;;;5114897;28;19959;-68
2023/05/02 06:14:48;;;;;;;;;;;;;;;;;;5115165;28;19955;-68
2023/05/02 06:17:14;;;;;;;;;;;;;;;;;;5115071;28;19958;-67
2023/05/02 06:19:40;;;;;;;;;;;;;;;;;;5114771;28;19962;-68
2023/05/02 06:22:06;;;;;;;;;;;;;;;;;;5114831;28;20014;-68
2023/05/02 06:24:32;;;;;;;;;;;;;;;;;;5114635;28;20022;-68
2023/05/02 06:26:58;;;;;;;;;;;;;;;;;;5114676;28;19959;-68
2023/05/02 06:29:24;;;;;;;;;;;;;;;;;;5114425;28;20412;-68
2023/05/02 06:31:50;;;;;;;;;;;;;;;;;;5114051;28;19997;-69
2023/05/02 06:34:16;;;;;;;;;;;;;;;;;;5114794;28;19955;-68
2023/05/02 06:36:42;;;;;;;;;;;;;;;;;;5114461;28;20007;-67
2023/05/02 06:39:08;;;;;;;;;;;;;;;;;;5114692;28;19986;-68
2023/05/02 06:41:34;;;;;;;;;;;;;;;;;;5114401;28;19953;-67
2023/05/02 06:44:00;;;;;;;;;;;;;;;;;;5115172;28;19981;-68
2023/05/02 06:46:26;;;;;;;;;;;;;;;;;;5114336;28;19955;-68
2023/05/02 06:48:51;;;;;;;;;;;;;;;;;;5114579;28;19955;-68
2023/05/02 06:51:18;;;;;;;;;;;;;;;;;;5115065;28;19962;-68
2023/05/02 06:53:44;;;;;;;;;;;;;;;;;;5114162;28;20029;-68
2023/05/02 06:56:10;;;;;;;;;;;;;;;;;;5114044;28;19959;-72
2023/05/02 06:58:35;;;;;;;;;;;;;;;;;;5114700;28;20350;-71
2023/05/02 07:01:01;;;;;;;;;;;;;;;;;;5114405;28;20001;-74
2023/05/02 07:03:27;;;;;;;;;;;;;;;;;;5113561;28;20010;-74
2023/05/02 07:05:53;;;;;;;;;;;;;;;;;;5114103;28;19988;-73
2023/05/02 07:08:21;;;;;;;;;;;;;;;;;;5114613;28;20358;-74
2023/05/02 07:10:47;;;;;;;;;;;;;;;;;;5113891;28;19976;-75
2023/05/02 07:13:13;;;;;;;;;;;;;;;;;;5114610;28;20344;-72
2023/05/02 07:15:38;;;;;;;;;;;;;;;;;;5114323;28;19994;-73
2023/05/02 07:18:05;;;;;;;;;;;;;;;;;;5113950;28;19962;-73
2023/05/02 07:20:31;;;;;;;;;;;;;;;;;;5114043;28;19958;-73
2023/05/02 07:22:57;;;;;;;;;;;;;;;;;;5113873;28;19982;-73
2023/05/02 07:25:23;;;;;;;;;;;;;;;;;;5113633;28;19962;-74
2023/05/02 07:27:49;;;;;;;;;;;;;;;;;;5112521;28;19966;-73
2023/05/02 07:30:15;;;;;;;;;;;;;;;;;;5113736;28;20453;-75
2023/05/02 07:32:40;;;;;;;;;;;;;;;;;;5113475;28;19963;-72
2023/05/02 07:35:06;;;;;;;;;;;;;;;;;;5113738;28;20043;-72
2023/05/02 07:37:33;;;;;;;;;;;;;;;;;;5114158;28;19959;-74
2023/05/02 07:39:59;;;;;;;;;;;;;;;;;;5113806;28;20355;-76
2023/05/02 07:42:25;;;;;;;;;;;;;;;;;;5117192;28;19954;-73
2023/05/02 07:44:51;;;;;;;;;;;;;;;;;;5116918;28;20035;-73
2023/05/02 07:47:17;;;;;;;;;;;;;;;;;;5117780;28;19955;-75
2023/05/02 07:49:43;;;;;;;;;;;;;;;;;;5117970;28;20012;-75
2023/05/02 07:52:09;;;;;;;;;;;;;;;;;;5098790;28;19970;-76
2023/05/02 07:54:34;;;;;;;;;;;;;;;;;;5116873;28;19994;-76
2023/05/02 07:57:02;;;;;;;;;;;;;;;;;;5117632;28;19984;-74
2023/05/02 07:59:28;;;;;;;;;;;;;;;;;;5117658;28;19955;-75
2023/05/02 08:01:54;;;;;;;;;;;;;;;;;;5117469;28;20010;-76
2023/05/02 08:04:20;;;;;;;;;;;;;;;;;;5098640;28;19975;-76
2023/05/02 08:06:45;;;;;;;;;;;;;;;;;;5117350;28;19955;-75
2023/05/02 08:09:11;;;;;;;;;;;;;;;;;;5116944;28;19962;-74
2023/05/02 08:11:37;;;;;;;;;;;;;;;;;;5116634;28;20427;-77
2023/05/02 08:14:03;;;;;;;;;;;;;;;;;;5116472;28;19967;-74
2023/05/02 08:16:29;;;;;;;;;;;;;;;;;;5116972;28;20466;-74
2023/05/02 08:18:55;;;;;;;;;;;;;;;;;;5116183;28;20424;-74
2023/05/02 08:21:21;;;;;;;;;;;;;;;;;;5116517;28;19970;-75
2023/05/02 08:23:47;;;;;;;;;;;;;;;;;;5116604;28;19974;-75
2023/05/02 08:26:13;;;;;;;;;;;;;;;;;;5116910;28;20451;-76
2023/05/02 08:28:39;;;;;;;;;;;;;;;;;;5117215;28;19955;-76
2023/05/02 08:31:05;;;;;;;;;;;;;;;;;;5116615;28;20135;-78
2023/05/02 08:33:31;;;;;;;;;;;;;;;;;;5116862;28;19955;-71
2023/05/02 08:35:57;;;;;;;;;;;;;;;;;;5117053;28;19962;-76
2023/05/02 08:38:23;;;;;;;;;;;;;;;;;;5116347;28;19967;-73
2023/05/02 08:40:49;;;;;;;;;;;;;;;;;;5116677;28;20071;-74
2023/05/02 08:43:15;;;;;;;;;;;;;;;;;;5116737;28;19962;-72
2023/05/02 08:45:41;;;;;;;;;;;;;;;;;;5116622;28;20354;-73
2023/05/02 08:48:09;;;;;;;;;;;;;;;;;;5116829;28;19955;-72
2023/05/02 08:50:35;;;;;;;;;;;;;;;;;;5116815;28;19958;-74
2023/05/02 08:53:00;;;;;;;;;;;;;;;;;;5098178;28;20042;-75
2023/05/02 08:55:26;;;;;;;;;;;;;;;;;;5116411;28;19955;-73
2023/05/02 08:57:52;;;;;;;;;;;;;;;;;;5116348;28;19955;-72
2023/05/02 09:00:18;;;;;;;;;;;;;;;;;;5116576;28;19963;-73
2023/05/02 09:02:44;;;;;;;;;;;;;;;;;;5116306;28;20064;-72
2023/05/02 09:05:10;;;;;;;;;;;;;;;;;;5115930;28;19983;-74
2023/05/02 09:07:36;;;;;;;;;;;;;;;;;;5115723;28;20321;-69
2023/05/02 09:10:02;;;;;;;;;;;;;;;;;;5114966;28;19966;-73
2023/05/02 09:12:28;;;;;;;;;;;;;;;;;;5101532;28;20514;-74
2023/05/02 09:14:54;;;;;;;;;;;;;;;;;;5111838;28;19996;-74
2023/05/02 09:17:20;;;;;;;;;;;;;;;;;;5115048;28;19966;-71
2023/05/02 09:19:46;;;;;;;;;;;;;;;;;;5114157;28;20002;-68
2023/05/02 09:22:12;;;;;;;;;;;;;;;;;;5112410;28;20348;-68
2023/05/02 09:24:38;;;;;;;;;;;;;;;;;;5115007;28;19979;-68
2023/05/02 09:27:04;;;;;;;;;;;;;;;;;;5115388;28;20316;-68
2023/05/02 09:29:34;;;;;;;;;;;;;;;;;;5115847;28;20004;-68
2023/05/02 09:32:00;;;;;;;;;;;;;;;;;;5115194;28;19991;-68
2023/05/02 09:34:26;;;;;;;;;;;;;;;;;;5114494;28;19957;-72
2023/05/02 09:36:55;;;;;;;;;;;;;;;;;;5115675;28;19955;-71
2023/05/02 09:39:21;;;;;;;;;;;;;;;;;;5115362;28;20050;-73
2023/05/02 09:41:47;;;;;;;;;;;;;;;;;;5114882;28;20042;-73
2023/05/02 09:44:12;;;;;;;;;;;;;;;;;;5115951;28;19978;-70
2023/05/02 09:46:39;;;;;;;;;;;;;;;;;;5115051;28;19985;-71
2023/05/02 09:49:05;;;;;;;;;;;;;;;;;;5115671;28;20007;-72
2023/05/02 09:51:30;;;;;;;;;;;;;;;;;;5115314;28;19955;-71
2023/05/02 09:53:56;;;;;;;;;;;;;;;;;;5114718;28;19986;-72
2023/05/02 09:56:22;;;;;;;;;;;;;;;;;;5114797;28;20335;-73
2023/05/02 09:58:48;;;;;;;;;;;;;;;;;;5115346;28;19962;-73
2023/05/02 10:01:15;;;;;;;;;;;;;;;;;;5115435;28;20067;-72
2023/05/02 10:03:41;;;;;;;;;;;;;;;;;;5113864;28;19979;-72
2023/05/02 10:06:06;;;;;;;;;;;;;;;;;;5115087;28;19978;-72
2023/05/02 10:08:32;;;;;;;;;;;;;;;;;;5114483;28;19963;-74
2023/05/02 10:10:58;;;;;;;;;;;;;;;;;;5115279;28;20320;-68
2023/05/02 10:13:26;;;;;;;;;;;;;;;;;;5113407;28;20386;-68
2023/05/02 10:15:52;;;;;;;;;;;;;;;;;;5094682;28;19973;-70
2023/05/02 10:18:18;;;;;;;;;;;;;;;;;;5105758;28;20049;-76
2023/05/02 10:20:43;;;;;;;;;;;;;;;;;;5115355;28;20009;-71
2023/05/02 10:23:09;;;;;;;;;;;;;;;;;;5113528;28;19985;-72
2023/05/02 10:25:36;;;;;;;;;;;;;;;;;;5104494;28;20323;-72
2023/05/02 10:28:02;;;;;;;;;;;;;;;;;;5098339;28;19966;-75
2023/05/02 10:30:28;;;;;;;;;;;;;;;;;;5113606;28;19986;-76
2023/05/02 10:32:55;;;;;;;;;;;;;;;;;;5114550;28;19959;-75
2023/05/02 10:35:21;;;;;;;;;;;;;;;;;;5114426;28;19977;-74
2023/05/02 10:37:48;;;;;;;;;;;;;;;;;;5114963;28;20396;-75
2023/05/02 10:40:14;;;;;;;;;;;;;;;;;;5114412;28;20366;-76
2023/05/02 10:42:40;;;;;;;;;;;;;;;;;;5114354;28;19971;-76
2023/05/02 10:45:06;;;;;;;;;;;;;;;;;;5115113;28;19978;-75
2023/05/02 10:47:32;;;;;;;;;;;;;;;;;;5114575;28;19955;-74
2023/05/02 10:49:58;;;;;;;;;;;;;;;;;;5114219;28;19955;-75
2023/05/02 10:52:24;;;;;;;;;;;;;;;;;;5114457;28;19978;-75
2023/05/02 10:54:50;;;;;;;;;;;;;;;;;;5114150;28;19961;-75
2023/05/02 10:57:16;;;;;;;;;;;;;;;;;;5114405;28;20048;-76
2023/05/02 10:59:42;;;;;;;;;;;;;;;;;;5114223;28;19955;-75
2023/05/02 11:02:08;;;;;;;;;;;;;;;;;;5114235;28;19977;-75
2023/05/02 11:04:33;;;;;;;;;;;;;;;;;;5114515;28;19990;-76
2023/05/02 11:07:00;;;;;;;;;;;;;;;;;;5114038;28;20003;-76
2023/05/02 11:09:25;;;;;;;;;;;;;;;;;;5114012;28;20049;-75
2023/05/02 11:11:53;;;;;;;;;;;;;;;;;;5114502;28;19990;-76
2023/05/02 11:14:19;;;;;;;;;;;;;;;;;;5114227;28;19977;-74
2023/05/02 11:16:45;;;;;;;;;;;;;;;;;;5118043;28;19954;-75
2023/05/02 11:19:10;;;;;;;;;;;;;;;;;;5099882;28;20408;-76
2023/05/02 11:21:37;;;;;;;;;;;;;;;;;;5118087;28;19975;-75
2023/05/02 11:24:03;;;;;;;;;;;;;;;;;;5118038;28;20470;-75
2023/05/02 11:26:31;;;;;;;;;;;;;;;;;;5118110;28;19955;-75
2023/05/02 11:28:57;;;;;;;;;;;;;;;;;;5118290;28;19955;-74
2023/05/02 11:31:23;;;;;;;;;;;;;;;;;;5117741;28;20020;-75
2023/05/02 11:33:49;;;;;;;;;;;;;;;;;;5118227;28;19955;-76
2023/05/02 11:36:15;;;;;;;;;;;;;;;;;;5099565;28;19959;-75
2023/05/02 11:38:41;;;;;;;;;;;;;;;;;;5117922;28;20473;-75
2023/05/02 11:41:07;;;;;;;;;;;;;;;;;;5117810;28;19954;-75
2023/05/02 11:43:33;;;;;;;;;;;;;;;;;;5118470;28;19978;-75
2023/05/02 11:45:58;;;;;;;;;;;;;;;;;;5117713;28;19961;-75
2023/05/02 11:48:26;;;;;;;;;;;;;;;;;;5117681;28;19997;-75
2023/05/02 11:50:52;;;;;;;;;;;;;;;;;;5117873;28;20045;-75
2023/05/02 11:53:18;;;;;;;;;;;;;;;;;;5117954;28;20008;-75
2023/05/02 11:55:44;;;;;;;;;;;;;;;;;;5099291;28;19958;-76
2023/05/02 11:58:10;;;;;;;;;;;;;;;;;;5117568;28;20431;-76
2023/05/02 12:00:36;;;;;;;;;;;;;;;;;;5099042;28;20053;-76
2023/05/02 12:03:03;;;;;;;;;;;;;;;;;;5117697;28;19992;-73
2023/05/02 12:05:29;;;;;;;;;;;;;;;;;;5117314;28;19982;-75
2023/05/02 12:07:55;;;;;;;;;;;;;;;;;;5117313;28;19955;-76
2023/05/02 12:10:21;;;;;;;;;;;;;;;;;;5117358;28;19970;-74
2023/05/02 12:12:46;;;;;;;;;;;;;;;;;;5117476;28;19959;-74
2023/05/02 12:15:12;;;;;;;;;;;;;;;;;;5117221;28;20297;-75
2023/05/02 12:17:38;;;;;;;;;;;;;;;;;;5117296;28;20000;-76
2023/05/02 12:20:04;;;;;;;;;;;;;;;;;;5117394;28;19955;-76
2023/05/02 12:22:30;;;;;;;;;;;;;;;;;;5117072;28;19970;-76
2023/05/02 12:24:56;;;;;;;;;;;;;;;;;;5098652;28;19983;-75
2023/05/02 12:27:22;;;;;;;;;;;;;;;;;;5117106;28;20312;-75
2023/05/02 12:29:48;;;;;;;;;;;;;;;;;;5116743;28;19966;-77
2023/05/02 12:32:15;;;;;;;;;;;;;;;;;;5116899;28;20050;-75
2023/05/02 12:34:41;;;;;;;;;;;;;;;;;;5117156;28;20005;-75
2023/05/02 12:37:06;;;;;;;;;;;;;;;;;;5116750;28;19954;-75
2023/05/02 12:39:33;;;;;;;;;;;;;;;;;;5098479;28;19959;-75
2023/05/02 12:41:58;;;;;;;;;;;;;;;;;;5116980;28;20040;-76
2023/05/02 12:44:25;;;;;;;;;;;;;;;;;;5117131;28;20018;-74
2023/05/02 12:46:51;;;;;;;;;;;;;;;;;;5116610;28;19955;-74
2023/05/02 12:49:16;;;;;;;;;;;;;;;;;;5117384;28;19954;-75
2023/05/02 12:51:42;;;;;;;;;;;;;;;;;;5116075;28;20000;-75
2023/05/02 12:54:08;;;;;;;;;;;;;;;;;;5116104;28;20008;-77
2023/05/02 12:56:34;;;;;;;;;;;;;;;;;;5116940;28;20387;-75
2023/05/02 12:59:02;;;;;;;;;;;;;;;;;;5097744;28;19965;-76
2023/05/02 13:01:30;;;;;;;;;;;;;;;;;;5117046;28;19955;-76
2023/05/02 13:03:56;;;;;;;;;;;;;;;;;;5116199;28;20394;-75
2023/05/02 13:06:22;;;;;;;;;;;;;;;;;;5116758;28;19959;-76
2023/05/02 13:08:48;;;;;;;;;;;;;;;;;;5116184;28;20454;-75
2023/05/02 13:11:14;;;;;;;;;;;;;;;;;;5097867;28;20432;-74
2023/05/02 13:13:40;;;;;;;;;;;;;;;;;;5116353;28;19962;-75
2023/05/02 13:16:06;;;;;;;;;;;;;;;;;;5116033;28;19955;-75
2023/05/02 13:18:32;;;;;;;;;;;;;;;;;;5116580;28;19954;-76
2023/05/02 13:20:58;;;;;;;;;;;;;;;;;;5115929;28;20418;-76
2023/05/02 13:23:24;;;;;;;;;;;;;;;;;;5115988;28;19971;-75
2023/05/02 13:25:50;;;;;;;;;;;;;;;;;;5097559;28;19959;-75
2023/05/02 13:28:17;;;;;;;;;;;;;;;;;;5116396;28;19961;-76
2023/05/02 13:30:43;;;;;;;;;;;;;;;;;;5115587;28;19995;-76
2023/05/02 13:33:09;;;;;;;;;;;;;;;;;;5097387;28;19961;-75
2023/05/02 13:35:35;;;;;;;;;;;;;;;;;;5116256;28;20007;-74
2023/05/02 13:38:01;;;;;;;;;;;;;;;;;;5115002;28;19955;-75
2023/05/02 13:40:27;;;;;;;;;;;;;;;;;;5115674;28;20000;-74
2023/05/02 13:42:53;;;;;;;;;;;;;;;;;;5115669;28;19963;-75
2023/05/02 13:45:19;;;;;;;;;;;;;;;;;;5113887;28;20459;-76
2023/05/02 13:47:45;;;;;;;;;;;;;;;;;;5095382;28;19959;-75
2023/05/02 13:50:11;;;;;;;;;;;;;;;;;;5114174;28;19955;-75
2023/05/02 13:52:37;;;;;;;;;;;;;;;;;;5113938;28;19961;-76
2023/05/02 13:55:03;;;;;;;;;;;;;;;;;;5114090;28;19959;-76
2023/05/02 13:57:29;;;;;;;;;;;;;;;;;;5114022;28;19955;-75
2023/05/02 13:59:55;;;;;;;;;;;;;;;;;;5096388;28;19973;-76
2023/05/02 14:02:21;;;;;;;;;;;;;;;;;;5115287;28;20004;-76
2023/05/02 14:04:47;;;;;;;;;;;;;;;;;;5114988;28;19974;-74
2023/05/02 14:07:13;;;;;;;;;;;;;;;;;;5115622;28;19958;-76
2023/05/02 14:09:39;;;;;;;;;;;;;;;;;;5096543;28;19959;-74
2023/05/02 14:12:05;;;;;;;;;;;;;;;;;;5096707;28;20435;-76
2023/05/02 14:14:31;;;;;;;;;;;;;;;;;;5114932;28;19962;-75
2023/05/02 14:16:57;;;;;;;;;;;;;;;;;;5115112;28;19959;-74
2023/05/02 14:19:23;;;;;;;;;;;;;;;;;;5114754;28;19957;-75
2023/05/02 14:21:49;;;;;;;;;;;;;;;;;;5114673;28;19970;-76
2023/05/02 14:24:15;;;;;;;;;;;;;;;;;;5096406;28;20017;-74
2023/05/02 14:26:41;;;;;;;;;;;;;;;;;;5115253;28;19961;-74
2023/05/02 14:29:08;;;;;;;;;;;;;;;;;;5114717;28;20057;-74
2023/05/02 14:31:33;;;;;;;;;;;;;;;;;;5114512;28;20006;-75
2023/05/02 14:33:59;;;;;;;;;;;;;;;;;;5114533;28;19959;-74
2023/05/02 14:36:25;;;;;;;;;;;;;;;;;;5114774;28;19959;-74
2023/05/02 14:38:51;;;;;;;;;;;;;;;;;;5114503;28;20305;-75
2023/05/02 14:41:20;;;;;;;;;;;;;;;;;;5113975;28;20494;-75
2023/05/02 14:43:46;;;;;;;;;;;;;;;;;;5114891;28;19994;-74
2023/05/02 14:46:12;;;;;;;;;;;;;;;;;;5114429;28;19990;-75
2023/05/02 14:48:38;;;;;;;;;;;;;;;;;;5114478;28;19960;-75
2023/05/02 14:51:04;;;;;;;;;;;;;;;;;;5114286;28;19959;-74
2023/05/02 14:53:30;;;;;;;;;;;;;;;;;;5114577;28;20002;-75
2023/05/02 14:55:56;;;;;;;;;;;;;;;;;;5114188;28;19962;-75
2023/05/02 14:58:22;;;;;;;;;;;;;;;;;;5114494;28;20049;-75
2023/05/02 15:00:47;;;;;;;;;;;;;;;;;;5114149;28;19962;-76
2023/05/02 15:03:13;;;;;;;;;;;;;;;;;;5114128;28;19959;-77
2023/05/02 15:05:40;;;;;;;;;;;;;;;;;;5114336;28;19978;-76
2023/05/02 15:08:07;;;;;;;;;;;;;;;;;;5114081;28;19955;-76
2023/05/02 15:10:33;;;;;;;;;;;;;;;;;;5095630;28;19962;-74
2023/05/02 15:12:59;;;;;;;;;;;;;;;;;;5095734;28;20070;-76
2023/05/02 15:15:25;;;;;;;;;;;;;;;;;;5114040;28;20444;-76
2023/05/02 15:17:51;;;;;;;;;;;;;;;;;;5114025;28;19976;-75
2023/05/02 15:20:17;;;;;;;;;;;;;;;;;;5114271;28;19962;-75
2023/05/02 15:22:43;;;;;;;;;;;;;;;;;;5113984;28;19975;-75
2023/05/02 15:25:09;;;;;;;;;;;;;;;;;;5095553;28;19978;-75
2023/05/02 15:27:35;;;;;;;;;;;;;;;;;;5114445;28;19962;-76
2023/05/02 15:30:05;;;;;;;;;;;;;;;;;;5113638;28;19962;-75
2023/05/02 15:32:31;;;;;;;;;;;;;;;;;;5095333;28;20347;-74
2023/05/02 15:34:57;;;;;;;;;;;;;;;;;;5095567;28;19963;-75
2023/05/02 15:37:23;;;;;;;;;;;;;;;;;;5113826;28;19954;-76
2023/05/02 15:39:49;;;;;;;;;;;;;;;;;;5114093;28;19955;-74
2023/05/02 15:42:15;;;;;;;;;;;;;;;;;;5095541;28;20064;-75
2023/05/02 15:44:41;;;;;;;;;;;;;;;;;;5114764;28;19978;-74
2023/05/02 15:47:07;;;;;;;;;;;;;;;;;;5113743;28;20324;-74
2023/05/02 15:49:33;;;;;;;;;;;;;;;;;;5113972;28;20057;-75
2023/05/02 15:51:59;;;;;;;;;;;;;;;;;;5113681;28;19977;-76
2023/05/02 15:54:25;;;;;;;;;;;;;;;;;;5114207;28;20471;-75
2023/05/02 15:56:51;;;;;;;;;;;;;;;;;;5113608;28;19959;-75
2023/05/02 15:59:17;;;;;;;;;;;;;;;;;;5113872;28;19955;-75
2023/05/02 16:01:43;;;;;;;;;;;;;;;;;;5097188;28;19963;-76
2023/05/02 16:04:09;;;;;;;;;;;;;;;;;;5099051;28;19985;-75
2023/05/02 16:06:35;;;;;;;;;;;;;;;;;;5117467;28;20458;-76
2023/05/02 16:09:01;;;;;;;;;;;;;;;;;;5117635;28;19959;-76
2023/05/02 16:11:27;;;;;;;;;;;;;;;;;;5099091;28;20045;-75
2023/05/02 16:13:53;;;;;;;;;;;;;;;;;;5099018;28;19997;-75
2023/05/02 16:16:19;;;;;;;;;;;;;;;;;;5098913;28;20012;-76
2023/05/02 16:18:45;;;;;;;;;;;;;;;;;;5117424;28;20001;-74
2023/05/02 16:21:11;;;;;;;;;;;;;;;;;;5098819;28;19965;-74
2023/05/02 16:23:37;;;;;;;;;;;;;;;;;;5117193;28;19977;-75
2023/05/02 16:26:03;;;;;;;;;;;;;;;;;;5117052;28;19959;-75
2023/05/02 16:28:29;;;;;;;;;;;;;;;;;;5117304;28;19962;-74
2023/05/02 16:30:55;;;;;;;;;;;;;;;;;;5098571;28;20096;-76
2023/05/02 16:33:21;;;;;;;;;;;;;;;;;;5117160;28;20072;-75
2023/05/02 16:35:47;;;;;;;;;;;;;;;;;;5098610;28;19959;-75
2023/05/02 16:38:13;;;;;;;;;;;;;;;;;;5116835;28;20439;-75